createdAt,value
2022-10-03T00:01:47.645Z,9.04
2022-10-03T00:04:46.542Z,9.05
2022-10-03T00:07:37.291Z,9.04
2022-10-03T00:10:24.538Z,9.05
2022-10-03T00:13:21.461Z,9.03
2022-10-03T00:16:11.131Z,9.06
2022-10-03T00:18:58.430Z,9.13
2022-10-03T00:21:48.656Z,9.12
2022-10-03T00:24:55.800Z,9.05
2022-10-03T00:27:41.977Z,9.00
2022-10-03T00:30:31.458Z,8.94
2022-10-03T00:33:28.874Z,8.97
2022-10-03T00:36:36.063Z,8.99
2022-10-03T00:39:31.970Z,8.92
2022-10-03T00:42:45.324Z,9.00
2022-10-03T00:45:20.117Z,8.99
2022-10-03T00:48:13.190Z,9.01
2022-10-03T00:51:13.509Z,9.02
2022-10-03T00:53:50.073Z,9.02
2022-10-03T00:56:40.000Z,9.01
2022-10-03T00:59:39.090Z,9.02
2022-10-03T01:02:44.353Z,9.01
2022-10-03T01:05:43.468Z,8.99
2022-10-03T01:08:42.513Z,9.02
2022-10-03T01:11:30.429Z,9.01
2022-10-03T01:14:34.593Z,8.96
2022-10-03T01:17:20.486Z,8.98
2022-10-03T01:19:54.815Z,9.01
2022-10-03T01:22:44.553Z,9.01
2022-10-03T01:25:51.464Z,8.97
2022-10-03T01:28:49.420Z,8.98
2022-10-03T01:31:26.059Z,8.97
2022-10-03T01:34:01.722Z,8.98
2022-10-03T01:36:35.443Z,9.02
2022-10-03T01:39:17.774Z,9.04
2022-10-03T01:42:07.844Z,8.94
2022-10-03T01:45:03.346Z,9.05
2022-10-03T01:47:39.050Z,9.12
2022-10-03T01:50:32.009Z,9.08
2022-10-03T01:53:09.651Z,9.11
2022-10-03T01:56:07.708Z,9.14
2022-10-03T01:59:13.838Z,9.14
2022-10-03T02:01:50.125Z,9.19
2022-10-03T02:04:29.566Z,9.16
2022-10-03T02:07:22.350Z,9.18
2022-10-03T02:09:54.664Z,9.19
2022-10-03T02:12:28.324Z,9.17
2022-10-03T02:15:08.992Z,9.18
2022-10-03T02:17:55.589Z,9.19
2022-10-03T02:20:48.700Z,9.20
2022-10-03T02:23:28.513Z,9.18
2022-10-03T02:26:27.313Z,9.26
2022-10-03T02:29:09.108Z,9.25
2022-10-03T02:32:15.354Z,9.23
2022-10-03T02:35:08.220Z,9.21
2022-10-03T02:37:47.423Z,9.22
2022-10-03T02:41:01.399Z,9.23
2022-10-03T02:43:48.780Z,9.20
2022-10-03T02:46:41.933Z,9.20
2022-10-03T02:49:29.070Z,9.22
2022-10-03T02:52:24.284Z,9.17
2022-10-03T02:55:29.400Z,9.14
2022-10-03T02:58:26.572Z,9.17
2022-10-03T03:01:13.835Z,9.23
2022-10-03T03:03:54.271Z,9.20
2022-10-03T03:06:33.500Z,9.21
2022-10-03T03:09:29.894Z,9.22
2022-10-03T03:12:24.187Z,9.24
2022-10-03T03:15:29.334Z,9.24
2022-10-03T03:18:29.478Z,9.22
2022-10-03T03:21:04.009Z,9.19
2022-10-03T03:23:48.145Z,9.21
2022-10-03T03:26:57.829Z,9.21
2022-10-03T03:29:42.559Z,9.24
2022-10-03T03:32:31.200Z,9.23
2022-10-03T03:35:07.667Z,9.28
2022-10-03T03:38:05.993Z,9.24
2022-10-03T03:40:43.409Z,9.22
2022-10-03T03:43:30.475Z,9.20
2022-10-03T03:46:19.983Z,9.23
2022-10-03T03:48:54.431Z,9.24
2022-10-03T03:51:25.004Z,9.26
2022-10-03T03:54:06.109Z,9.23
2022-10-03T03:57:04.898Z,9.23
2022-10-03T03:59:42.243Z,9.25
2022-10-03T04:02:29.655Z,9.27
2022-10-03T04:05:15.260Z,9.32
2022-10-03T04:08:12.863Z,9.34
2022-10-03T04:10:45.903Z,9.34
2022-10-03T04:13:40.247Z,9.38
2022-10-03T04:16:44.160Z,9.37
2022-10-03T04:19:13.789Z,9.43
2022-10-03T04:22:03.109Z,9.44
2022-10-03T04:24:57.357Z,9.43
2022-10-03T04:27:56.649Z,9.39
2022-10-03T04:30:49.110Z,9.35
2022-10-03T04:33:54.999Z,9.38
2022-10-03T04:36:42.194Z,9.35
2022-10-03T04:39:28.437Z,9.39
2022-10-03T04:42:18.390Z,9.35
2022-10-03T04:45:05.149Z,9.38
2022-10-03T04:47:50.004Z,9.37
2022-10-03T04:50:36.185Z,9.40
2022-10-03T04:53:43.266Z,9.38
2022-10-03T04:56:30.288Z,9.45
2022-10-03T04:59:23.877Z,9.43
2022-10-03T05:02:03.959Z,9.39
2022-10-03T05:05:13.377Z,9.45
2022-10-03T05:08:15.917Z,9.49
2022-10-03T05:11:13.114Z,9.52
2022-10-03T05:14:19.129Z,9.52
2022-10-03T05:17:25.182Z,9.58
2022-10-03T05:20:27.349Z,9.60
2022-10-03T05:23:12.671Z,9.64
2022-10-03T05:26:32.356Z,9.65
2022-10-03T05:29:19.544Z,9.66
2022-10-03T05:32:17.967Z,9.69
2022-10-03T05:34:55.582Z,9.75
2022-10-03T05:38:05.549Z,9.76
2022-10-03T05:40:36.947Z,9.78
2022-10-03T05:43:28.544Z,9.82
2022-10-03T05:46:22.274Z,9.85
2022-10-03T05:49:29.321Z,9.83
2022-10-03T05:52:04.999Z,9.89
2022-10-03T05:54:48.320Z,9.95
2022-10-03T05:57:27.797Z,9.93
2022-10-03T06:00:21.092Z,10.00
2022-10-03T06:03:11.388Z,10.09
2022-10-03T06:05:42.159Z,10.09
2022-10-03T06:08:42.170Z,10.15
2022-10-03T06:11:34.714Z,10.18
2022-10-03T06:14:27.699Z,10.18
2022-10-03T06:17:05.085Z,10.21
2022-10-03T06:19:55.363Z,10.21
2022-10-03T06:22:42.951Z,10.26
2022-10-03T06:25:48.982Z,10.21
2022-10-03T06:28:20.304Z,10.20
2022-10-03T06:31:19.413Z,10.20
2022-10-03T06:34:17.905Z,10.18
2022-10-03T06:36:45.898Z,10.20
2022-10-03T06:39:43.775Z,10.16
2022-10-03T06:42:36.708Z,10.13
2022-10-03T06:45:16.726Z,10.12
2022-10-03T06:48:00.953Z,10.08
2022-10-03T06:51:00.336Z,10.07
2022-10-03T06:53:43.519Z,10.10
2022-10-03T06:56:50.233Z,10.14
2022-10-03T06:59:41.171Z,10.11
2022-10-03T07:02:46.538Z,10.24
2022-10-03T07:05:52.313Z,10.28
2022-10-03T07:08:45.528Z,10.30
2022-10-03T07:11:39.154Z,10.36
2022-10-03T07:14:38.934Z,10.43
2022-10-03T07:17:19.509Z,10.43
2022-10-03T07:20:20.662Z,10.51
2022-10-03T07:23:22.524Z,10.56
2022-10-03T07:26:26.987Z,10.67
2022-10-03T07:29:19.250Z,10.65
2022-10-03T07:32:25.098Z,10.75
2022-10-03T07:35:53.901Z,10.80
2022-10-03T07:39:01.180Z,10.84
2022-10-03T07:41:42.371Z,10.95
2022-10-03T07:44:19.420Z,11.00
2022-10-03T07:47:18.907Z,11.02
2022-10-03T07:49:56.643Z,11.06
2022-10-03T07:52:26.499Z,11.06
2022-10-03T07:55:08.592Z,11.15
2022-10-03T07:57:45.827Z,11.19
2022-10-03T08:00:30.277Z,11.18
2022-10-03T08:03:36.618Z,11.19
2022-10-03T08:06:24.882Z,11.19
2022-10-03T08:09:19.892Z,11.20
2022-10-03T08:12:25.103Z,11.24
2022-10-03T08:15:22.212Z,11.31
2022-10-03T08:18:03.525Z,11.32
2022-10-03T08:20:48.910Z,11.43
2022-10-03T08:23:29.324Z,11.47
2022-10-03T08:26:13.209Z,11.47
2022-10-03T08:29:26.581Z,11.50
2022-10-03T08:32:05.401Z,11.47
2022-10-03T08:34:59.818Z,11.50
2022-10-03T08:38:05.442Z,11.45
2022-10-03T08:40:45.869Z,11.41
2022-10-03T08:43:42.360Z,11.38
2022-10-03T08:46:19.407Z,11.38
2022-10-03T08:48:56.848Z,11.38
2022-10-03T08:51:43.338Z,11.28
2022-10-03T08:54:51.796Z,11.29
2022-10-03T08:57:25.012Z,11.29
2022-10-03T09:00:31.501Z,11.40
2022-10-03T09:03:31.848Z,11.44
2022-10-03T09:06:24.547Z,11.49
2022-10-03T09:09:14.027Z,11.54
2022-10-03T09:12:15.692Z,11.55
2022-10-03T09:15:12.228Z,11.45
2022-10-03T09:18:18.954Z,11.28
2022-10-03T09:21:07.479Z,11.12
2022-10-03T09:24:03.378Z,11.10
2022-10-03T09:26:49.929Z,11.01
2022-10-03T09:29:55.642Z,11.06
2022-10-03T09:32:43.315Z,11.07
2022-10-03T09:35:52.335Z,11.14
2022-10-03T09:38:46.099Z,11.27
2022-10-03T09:41:52.624Z,11.34
2022-10-03T09:44:57.952Z,11.38
2022-10-03T09:47:39.281Z,11.39
2022-10-03T09:50:38.480Z,11.45
2022-10-03T09:53:49.891Z,11.48
2022-10-03T09:56:44.902Z,11.61
2022-10-03T09:59:31.881Z,11.63
2022-10-03T10:02:13.246Z,11.76
2022-10-03T10:04:56.343Z,11.78
2022-10-03T10:07:47.071Z,11.80
2022-10-03T10:10:31.720Z,11.80
2022-10-03T10:13:56.049Z,11.78
2022-10-03T10:16:52.799Z,11.79
2022-10-03T10:20:05.162Z,11.71
2022-10-03T10:22:52.456Z,11.66
2022-10-03T10:25:58.816Z,11.64
2022-10-03T10:29:05.493Z,11.67
2022-10-03T10:31:53.243Z,11.58
2022-10-03T10:34:52.230Z,11.45
2022-10-03T10:38:03.172Z,11.29
2022-10-03T10:41:03.589Z,11.24
2022-10-03T10:43:51.340Z,11.27
2022-10-03T10:46:47.619Z,11.35
2022-10-03T10:49:38.982Z,11.38
2022-10-03T10:52:36.370Z,11.38
2022-10-03T10:55:25.679Z,11.50
2022-10-03T10:58:23.518Z,11.55
2022-10-03T11:01:28.871Z,11.54
2022-10-03T11:04:18.849Z,11.52
2022-10-03T11:06:53.671Z,11.63
2022-10-03T11:09:59.528Z,11.83
2022-10-03T11:12:42.197Z,11.93
2022-10-03T11:15:48.434Z,12.04
2022-10-03T11:18:18.855Z,11.97
2022-10-03T11:21:24.747Z,11.86
2022-10-03T11:24:30.161Z,11.80
2022-10-03T11:27:23.173Z,11.88
2022-10-03T11:30:16.128Z,12.06
2022-10-03T11:33:14.209Z,12.16
2022-10-03T11:36:20.341Z,12.20
2022-10-03T11:38:54.209Z,12.30
2022-10-03T11:41:41.294Z,12.44
2022-10-03T11:44:40.571Z,12.53
2022-10-03T11:47:33.262Z,12.50
2022-10-03T11:50:45.831Z,12.45
2022-10-03T11:53:27.290Z,12.37
2022-10-03T11:55:55.754Z,12.49
2022-10-03T11:58:42.018Z,12.59
2022-10-03T12:01:16.505Z,12.83
2022-10-03T12:04:09.267Z,12.96
2022-10-03T12:07:17.642Z,12.92
2022-10-03T12:10:08.724Z,12.95
2022-10-03T12:12:50.682Z,13.03
2022-10-03T12:15:35.028Z,13.04
2022-10-03T12:18:21.908Z,12.97
2022-10-03T12:21:09.139Z,12.79
2022-10-03T12:23:43.659Z,12.67
2022-10-03T12:26:17.764Z,12.68
2022-10-03T12:28:52.709Z,12.61
2022-10-03T12:31:46.713Z,12.59
2022-10-03T12:34:33.421Z,12.67
2022-10-03T12:37:31.544Z,12.90
2022-10-03T12:40:16.154Z,13.04
2022-10-03T12:43:05.499Z,13.21
2022-10-03T12:45:44.517Z,13.31
2022-10-03T12:48:43.097Z,13.45
2022-10-03T12:51:42.783Z,13.44
2022-10-03T12:54:45.089Z,13.32
2022-10-03T12:57:51.080Z,13.02
2022-10-03T13:00:21.693Z,12.91
2022-10-03T13:03:04.719Z,12.86
2022-10-03T13:05:44.910Z,12.72
2022-10-03T13:08:51.858Z,12.78
2022-10-03T13:11:58.745Z,12.75
2022-10-03T13:14:37.029Z,12.79
2022-10-03T13:17:27.154Z,12.88
2022-10-03T13:20:00.883Z,13.08
2022-10-03T13:22:35.228Z,13.23
2022-10-03T13:25:17.237Z,13.38
2022-10-03T13:27:52.240Z,13.40
2022-10-03T13:30:24.850Z,13.44
2022-10-03T13:32:58.342Z,13.54
2022-10-03T13:35:58.708Z,13.53
2022-10-03T13:38:38.126Z,13.49
2022-10-03T13:41:12.353Z,13.46
2022-10-03T13:43:45.143Z,13.38
2022-10-03T13:46:17.697Z,13.33
2022-10-03T13:48:55.124Z,13.29
2022-10-03T13:51:44.825Z,13.33
2022-10-03T13:54:39.999Z,13.25
2022-10-03T13:57:16.808Z,13.19
2022-10-03T14:00:13.560Z,13.22
2022-10-03T14:03:18.333Z,13.13
2022-10-03T14:06:11.362Z,13.11
2022-10-03T14:08:58.881Z,13.09
2022-10-03T14:11:44.114Z,13.04
2022-10-03T14:14:35.216Z,13.00
2022-10-03T14:17:31.939Z,12.92
2022-10-03T14:20:19.861Z,12.91
2022-10-03T14:23:06.483Z,12.93
2022-10-03T14:25:41.663Z,12.82
2022-10-03T14:28:41.780Z,12.80
2022-10-03T14:31:19.143Z,12.77
2022-10-03T14:33:56.782Z,12.70
2022-10-03T14:36:43.258Z,12.69
2022-10-03T14:39:37.407Z,12.65
2022-10-03T14:42:37.629Z,12.65
2022-10-03T14:45:13.854Z,12.61
2022-10-03T14:47:43.600Z,12.60
2022-10-03T14:50:24.402Z,12.53
2022-10-03T14:53:02.551Z,12.53
2022-10-03T14:55:40.035Z,12.51
2022-10-03T14:58:29.749Z,12.46
2022-10-03T15:01:25.020Z,12.37
2022-10-03T15:04:32.596Z,12.40
2022-10-03T15:07:05.500Z,12.37
2022-10-03T15:09:42.803Z,12.31
2022-10-03T15:12:16.433Z,12.29
2022-10-03T15:14:48.651Z,12.16
2022-10-03T15:17:23.261Z,12.16
2022-10-03T15:19:56.523Z,12.12
2022-10-03T15:22:42.918Z,12.14
2022-10-03T15:25:18.596Z,12.06
2022-10-03T15:27:50.279Z,12.04
2022-10-03T15:30:27.881Z,12.02
2022-10-03T15:33:16.942Z,11.91
2022-10-03T15:35:49.781Z,11.88
2022-10-03T15:38:27.349Z,11.70
2022-10-03T15:41:20.365Z,11.76
2022-10-03T15:43:52.836Z,11.72
2022-10-03T15:46:40.285Z,11.71
2022-10-03T15:49:12.211Z,11.63
2022-10-03T15:51:40.728Z,11.60
2022-10-03T15:54:13.338Z,11.56
2022-10-03T15:56:48.859Z,11.50
2022-10-03T15:59:45.870Z,11.39
2022-10-03T16:02:21.524Z,11.36
2022-10-03T16:04:54.977Z,11.39
2022-10-03T16:07:42.324Z,11.28
2022-10-03T16:10:34.770Z,11.26
2022-10-03T16:13:15.400Z,11.25
2022-10-03T16:16:10.703Z,11.26
2022-10-03T16:18:57.234Z,11.18
2022-10-03T16:21:45.238Z,11.02
2022-10-03T16:24:21.865Z,11.03
2022-10-03T16:26:56.532Z,11.02
2022-10-03T16:29:29.535Z,11.00
2022-10-03T16:32:09.581Z,10.94
2022-10-03T16:34:43.675Z,10.87
2022-10-03T16:37:26.574Z,10.78
2022-10-03T16:40:03.773Z,10.76
2022-10-03T16:42:46.044Z,10.64
2022-10-03T16:45:38.152Z,10.58
2022-10-03T16:48:31.298Z,10.39
2022-10-03T16:51:00.024Z,10.43
2022-10-03T16:53:29.578Z,10.38
2022-10-03T16:56:18.305Z,10.26
2022-10-03T16:58:55.715Z,10.20
2022-10-03T17:01:42.982Z,10.30
2022-10-03T17:04:33.230Z,10.34
2022-10-03T17:07:04.725Z,10.30
2022-10-03T17:09:55.435Z,10.32
2022-10-03T17:12:30.453Z,10.25
2022-10-03T17:15:08.170Z,10.21
2022-10-03T17:18:03.155Z,10.19
2022-10-03T17:20:44.529Z,10.15
2022-10-03T17:23:27.289Z,10.15
2022-10-03T17:26:05.587Z,10.08
2022-10-03T17:29:11.429Z,10.01
2022-10-03T17:31:46.036Z,9.93
2022-10-03T17:34:17.512Z,9.87
2022-10-03T17:37:24.617Z,9.86
2022-10-03T17:40:11.882Z,9.79
2022-10-03T17:42:41.684Z,9.71
2022-10-03T17:45:17.448Z,9.61
2022-10-03T17:48:11.424Z,9.58
2022-10-03T17:51:15.368Z,9.50
2022-10-03T17:53:48.153Z,9.53
2022-10-03T17:56:21.391Z,9.51
2022-10-03T17:59:03.621Z,9.50
2022-10-03T18:01:37.830Z,9.52
2022-10-03T18:04:11.862Z,9.55
2022-10-03T18:06:43.563Z,9.51
2022-10-03T18:09:17.598Z,9.48
2022-10-03T18:11:50.377Z,9.43
2022-10-03T18:15:17.428Z,9.51
2022-10-03T18:17:49.459Z,9.55
2022-10-03T18:20:42.197Z,9.62
2022-10-03T18:23:53.216Z,9.64
2022-10-03T18:26:37.136Z,9.57
2022-10-03T18:29:11.703Z,9.62
2022-10-03T18:31:45.491Z,9.64
2022-10-03T18:34:20.697Z,9.62
2022-10-03T18:36:51.424Z,9.58
2022-10-03T18:39:20.236Z,9.56
2022-10-03T18:41:53.977Z,9.52
2022-10-03T18:44:24.376Z,9.51
2022-10-03T18:47:16.637Z,9.41
2022-10-03T18:49:57.682Z,9.37
2022-10-03T18:52:32.633Z,9.34
2022-10-03T18:55:34.726Z,9.34
2022-10-03T18:58:13.986Z,9.37
2022-10-03T19:01:01.689Z,9.32
2022-10-03T19:03:39.708Z,9.36
2022-10-03T19:06:30.038Z,9.33
2022-10-03T19:09:09.681Z,9.34
2022-10-03T19:11:45.322Z,9.29
2022-10-03T19:14:25.789Z,9.25
2022-10-03T19:17:23.579Z,9.01
2022-10-03T19:19:59.042Z,9.24
2022-10-03T19:22:28.532Z,9.26
2022-10-03T19:24:59.500Z,9.20
2022-10-03T19:27:52.657Z,9.14
2022-10-03T19:30:26.418Z,9.09
2022-10-03T19:32:59.715Z,9.21
2022-10-03T19:35:30.384Z,9.17
2022-10-03T19:38:28.289Z,9.19
2022-10-03T19:41:01.945Z,9.22
2022-10-03T19:43:43.416Z,9.24
2022-10-03T19:46:15.347Z,9.35
2022-10-03T19:48:52.283Z,9.39
2022-10-03T19:51:25.623Z,9.45
2022-10-03T19:53:57.623Z,9.51
2022-10-03T19:56:31.088Z,9.52
2022-10-03T19:59:06.457Z,9.56
2022-10-03T20:01:49.091Z,9.54
2022-10-03T20:04:36.479Z,9.47
2022-10-03T20:07:13.130Z,9.53
2022-10-03T20:09:56.497Z,9.53
2022-10-03T20:12:29.492Z,9.52
2022-10-03T20:15:18.369Z,9.53
2022-10-03T20:17:47.718Z,9.54
2022-10-03T20:20:23.497Z,9.56
2022-10-03T20:22:55.070Z,9.64
2022-10-03T20:25:44.093Z,9.64
2022-10-03T20:28:21.839Z,9.65
2022-10-03T20:30:53.132Z,9.69
2022-10-03T20:33:25.732Z,9.78
2022-10-03T20:36:01.403Z,9.81
2022-10-03T20:39:07.399Z,9.74
2022-10-03T20:41:35.717Z,9.80
2022-10-03T20:44:15.444Z,9.79
2022-10-03T20:47:06.568Z,9.77
2022-10-03T20:49:48.926Z,9.80
2022-10-03T20:52:22.531Z,9.75
2022-10-03T20:54:53.082Z,9.74
2022-10-03T20:57:33.135Z,9.73
2022-10-03T21:00:10.460Z,9.68
2022-10-03T21:02:51.571Z,9.63
2022-10-03T21:05:24.434Z,9.61
2022-10-03T21:07:56.790Z,9.58
2022-10-03T21:10:37.308Z,9.57
2022-10-03T21:13:10.404Z,9.53
2022-10-03T21:15:54.016Z,9.58
2022-10-03T21:18:27.572Z,9.51
2022-10-03T21:21:20.817Z,9.56
2022-10-03T21:24:11.346Z,9.53
2022-10-03T21:27:11.457Z,9.51
2022-10-03T21:29:41.008Z,9.46
2022-10-03T21:32:27.693Z,9.54
2022-10-03T21:35:01.376Z,9.46
2022-10-03T21:38:07.832Z,9.49
2022-10-03T21:40:54.614Z,9.47
2022-10-03T21:43:48.331Z,9.42
2022-10-03T21:46:29.831Z,9.48
2022-10-03T21:49:02.188Z,9.44
2022-10-03T21:51:58.860Z,9.46
2022-10-03T21:55:04.561Z,9.44
2022-10-03T21:57:55.595Z,9.43
2022-10-03T22:00:30.360Z,9.40
2022-10-03T22:03:08.557Z,9.39
2022-10-03T22:05:49.148Z,9.39
2022-10-03T22:08:26.517Z,9.39
2022-10-03T22:11:13.964Z,9.37
2022-10-03T22:13:47.542Z,9.35
2022-10-03T22:16:51.311Z,9.28
2022-10-03T22:19:22.877Z,9.21
2022-10-03T22:22:00.419Z,9.27
2022-10-03T22:25:05.361Z,9.22
2022-10-03T22:27:50.131Z,9.24
2022-10-03T22:30:20.230Z,9.26
2022-10-03T22:33:14.610Z,9.25
2022-10-03T22:35:52.003Z,9.27
2022-10-03T22:38:25.670Z,9.25
2022-10-03T22:40:55.425Z,9.27
2022-10-03T22:43:24.931Z,9.36
2022-10-03T22:45:56.544Z,9.35
2022-10-03T22:48:33.617Z,9.36
2022-10-03T22:51:03.553Z,9.37
2022-10-03T22:53:35.892Z,9.40
2022-10-03T22:56:42.655Z,9.43
2022-10-03T22:59:31.976Z,9.47
2022-10-03T23:02:02.752Z,9.44
2022-10-03T23:04:50.055Z,9.46
2022-10-03T23:07:26.686Z,9.46
2022-10-03T23:10:26.870Z,9.46
2022-10-03T23:13:00.967Z,9.49
2022-10-03T23:15:30.774Z,9.51
2022-10-03T23:18:08.057Z,9.48
2022-10-03T23:21:03.652Z,9.52
2022-10-03T23:23:36.121Z,9.49
2022-10-03T23:26:26.269Z,9.50
2022-10-03T23:29:00.638Z,9.52
2022-10-03T23:32:06.098Z,9.53
2022-10-03T23:34:40.513Z,9.51
2022-10-03T23:37:14.644Z,9.35
2022-10-03T23:39:55.011Z,9.52
2022-10-03T23:42:46.014Z,9.50
2022-10-03T23:45:19.893Z,9.49
2022-10-03T23:48:14.832Z,9.50
2022-10-03T23:50:47.601Z,9.50
2022-10-03T23:53:28.118Z,9.51
2022-10-03T23:55:57.708Z,9.52
2022-10-03T23:58:31.972Z,9.50
